sensor_id;sensor_type;location;lat;lon;timestamp;temperature;humidity
1361;DHT22;674;45.552;-122.600;2023-10-19T00:00:42;18.00;1.00
1361;DHT22;674;45.552;-122.600;2023-10-19T00:03:19;17.80;1.00
1361;DHT22;674;45.552;-122.600;2023-10-19T00:05:48;17.70;1.00
1361;DHT22;674;45.552;-122.600;2023-10-19T00:08:17;17.60;1.00
1361;DHT22;674;45.552;-122.600;2023-10-19T00:10:51;17.50;1.00
1361;DHT22;674;45.552;-122.600;2023-10-19T00:13:39;17.50;1.00
1361;DHT22;674;45.552;-122.600;2023-10-19T00:16:08;17.40;1.00
1361;DHT22;674;45.552;-122.600;2023-10-19T00:18:45;17.30;1.00
1361;DHT22;674;45.552;-122.600;2023-10-19T00:21:17;17.20;1.00
1361;DHT22;674;45.552;-122.600;2023-10-19T00:23:58;17.20;1.00
1361;DHT22;674;45.552;-122.600;2023-10-19T00:26:33;17.10;1.00
1361;DHT22;674;45.552;-122.600;2023-10-19T00:29:01;17.00;1.00
1361;DHT22;674;45.552;-122.600;2023-10-19T00:31:47;16.90;1.00
1361;DHT22;674;45.552;-122.600;2023-10-19T00:34:16;16.80;1.00
1361;DHT22;674;45.552;-122.600;2023-10-19T00:36:45;16.70;1.00
1361;DHT22;674;45.552;-122.600;2023-10-19T00:39:14;16.60;1.00
1361;DHT22;674;45.552;-122.600;2023-10-19T00:41:48;16.50;1.00
1361;DHT22;674;45.552;-122.600;2023-10-19T00:44:17;16.50;1.00
1361;DHT22;674;45.552;-122.600;2023-10-19T00:47:04;16.40;1.00
1361;DHT22;674;45.552;-122.600;2023-10-19T00:49:41;16.30;1.00
1361;DHT22;674;45.552;-122.600;2023-10-19T00:52:12;16.30;1.00
1361;DHT22;674;45.552;-122.600;2023-10-19T00:54:48;16.20;1.00
1361;DHT22;674;45.552;-122.600;2023-10-19T00:57:20;16.10;1.00
1361;DHT22;674;45.552;-122.600;2023-10-19T00:59:51;16.10;1.00
1361;DHT22;674;45.552;-122.600;2023-10-19T01:02:28;16.00;1.00
1361;DHT22;674;45.552;-122.600;2023-10-19T01:04:57;15.90;1.00
1361;DHT22;674;45.552;-122.600;2023-10-19T01:07:35;15.80;1.00
1361;DHT22;674;45.552;-122.600;2023-10-19T01:10:08;15.80;1.00
1361;DHT22;674;45.552;-122.600;2023-10-19T01:12:40;15.70;1.00
1361;DHT22;674;45.552;-122.600;2023-10-19T01:18:01;15.60;1.00
1361;DHT22;674;45.552;-122.600;2023-10-19T01:20:31;15.40;4.50
1361;DHT22;674;45.552;-122.600;2023-10-19T01:23:05;15.30;12.70
1361;DHT22;674;45.552;-122.600;2023-10-19T01:25:49;15.30;16.80
1361;DHT22;674;45.552;-122.600;2023-10-19T01:28:38;15.20;26.30
1361;DHT22;674;45.552;-122.600;2023-10-19T01:31:21;15.10;37.60
1361;DHT22;674;45.552;-122.600;2023-10-19T01:34:00;15.00;52.90
1361;DHT22;674;45.552;-122.600;2023-10-19T01:36:35;15.00;67.30
1361;DHT22;674;45.552;-122.600;2023-10-19T01:39:13;14.90;70.90
1361;DHT22;674;45.552;-122.600;2023-10-19T01:41:41;14.80;75.70
1361;DHT22;674;45.552;-122.600;2023-10-19T01:44:11;14.80;81.70
1361;DHT22;674;45.552;-122.600;2023-10-19T01:46:43;14.70;86.30
1361;DHT22;674;45.552;-122.600;2023-10-19T01:49:12;14.70;89.40
1361;DHT22;674;45.552;-122.600;2023-10-19T01:51:41;14.60;92.80
1361;DHT22;674;45.552;-122.600;2023-10-19T01:54:12;14.50;96.70
1361;DHT22;674;45.552;-122.600;2023-10-19T01:56:42;14.50;99.90
1361;DHT22;674;45.552;-122.600;2023-10-19T01:59:11;14.50;99.90
1361;DHT22;674;45.552;-122.600;2023-10-19T02:01:41;14.40;99.90
1361;DHT22;674;45.552;-122.600;2023-10-19T02:04:13;14.40;99.90
1361;DHT22;674;45.552;-122.600;2023-10-19T02:06:42;14.30;99.90
1361;DHT22;674;45.552;-122.600;2023-10-19T02:09:14;14.30;99.90
1361;DHT22;674;45.552;-122.600;2023-10-19T02:11:51;14.20;99.90
1361;DHT22;674;45.552;-122.600;2023-10-19T02:14:29;14.20;99.90
1361;DHT22;674;45.552;-122.600;2023-10-19T02:17:00;14.10;99.90
1361;DHT22;674;45.552;-122.600;2023-10-19T02:19:31;14.10;99.90
1361;DHT22;674;45.552;-122.600;2023-10-19T02:22:02;14.00;99.90
1361;DHT22;674;45.552;-122.600;2023-10-19T02:24:40;14.00;99.90
1361;DHT22;674;45.552;-122.600;2023-10-19T02:27:10;13.90;99.90
1361;DHT22;674;45.552;-122.600;2023-10-19T02:29:56;13.90;99.90
1361;DHT22;674;45.552;-122.600;2023-10-19T02:32:25;13.80;99.90
1361;DHT22;674;45.552;-122.600;2023-10-19T02:34:53;13.80;99.90
1361;DHT22;674;45.552;-122.600;2023-10-19T02:37:22;13.70;99.90
1361;DHT22;674;45.552;-122.600;2023-10-19T02:39:53;13.70;99.90
1361;DHT22;674;45.552;-122.600;2023-10-19T02:42:22;13.60;99.90
1361;DHT22;674;45.552;-122.600;2023-10-19T02:44:50;13.60;99.90
1361;DHT22;674;45.552;-122.600;2023-10-19T02:47:19;13.60;99.90
1361;DHT22;674;45.552;-122.600;2023-10-19T02:49:47;13.50;99.90
1361;DHT22;674;45.552;-122.600;2023-10-19T02:52:19;13.50;99.90
1361;DHT22;674;45.552;-122.600;2023-10-19T02:54:48;13.50;99.90
1361;DHT22;674;45.552;-122.600;2023-10-19T02:57:17;13.40;99.90
1361;DHT22;674;45.552;-122.600;2023-10-19T02:59:47;13.40;99.90
1361;DHT22;674;45.552;-122.600;2023-10-19T03:02:15;13.40;99.90
1361;DHT22;674;45.552;-122.600;2023-10-19T03:04:45;13.30;99.90
1361;DHT22;674;45.552;-122.600;2023-10-19T03:07:14;13.30;99.90
1361;DHT22;674;45.552;-122.600;2023-10-19T03:09:43;13.30;99.90
1361;DHT22;674;45.552;-122.600;2023-10-19T03:12:21;13.20;99.90
1361;DHT22;674;45.552;-122.600;2023-10-19T03:14:54;13.20;99.90
1361;DHT22;674;45.552;-122.600;2023-10-19T03:17:23;13.10;99.90
1361;DHT22;674;45.552;-122.600;2023-10-19T03:19:53;13.00;99.90
1361;DHT22;674;45.552;-122.600;2023-10-19T03:22:23;13.10;99.90
1361;DHT22;674;45.552;-122.600;2023-10-19T03:24:53;13.10;99.90
1361;DHT22;674;45.552;-122.600;2023-10-19T03:27:40;13.00;99.90
1361;DHT22;674;45.552;-122.600;2023-10-19T03:30:12;13.00;99.90
1361;DHT22;674;45.552;-122.600;2023-10-19T03:32:48;13.00;99.90
1361;DHT22;674;45.552;-122.600;2023-10-19T03:35:16;13.00;99.90
1361;DHT22;674;45.552;-122.600;2023-10-19T03:37:45;13.00;99.90
1361;DHT22;674;45.552;-122.600;2023-10-19T03:40:16;13.00;99.90
1361;DHT22;674;45.552;-122.600;2023-10-19T03:42:53;13.00;99.90
1361;DHT22;674;45.552;-122.600;2023-10-19T03:45:23;13.00;99.90
1361;DHT22;674;45.552;-122.600;2023-10-19T03:47:52;12.90;99.90
1361;DHT22;674;45.552;-122.600;2023-10-19T03:50:23;12.90;99.90
1361;DHT22;674;45.552;-122.600;2023-10-19T03:52:53;12.80;99.90
1361;DHT22;674;45.552;-122.600;2023-10-19T03:55:22;12.80;99.90
1361;DHT22;674;45.552;-122.600;2023-10-19T03:57:51;12.70;99.90
1361;DHT22;674;45.552;-122.600;2023-10-19T04:00:23;12.70;99.90
1361;DHT22;674;45.552;-122.600;2023-10-19T04:02:56;12.70;99.90
1361;DHT22;674;45.552;-122.600;2023-10-19T04:05:26;12.60;99.90
1361;DHT22;674;45.552;-122.600;2023-10-19T04:07:56;12.60;99.90
1361;DHT22;674;45.552;-122.600;2023-10-19T04:10:25;12.60;99.90
1361;DHT22;674;45.552;-122.600;2023-10-19T04:13:03;12.60;99.90
1361;DHT22;674;45.552;-122.600;2023-10-19T04:15:32;12.50;99.90
1361;DHT22;674;45.552;-122.600;2023-10-19T04:18:03;12.50;99.90
1361;DHT22;674;45.552;-122.600;2023-10-19T04:20:39;12.50;99.90
1361;DHT22;674;45.552;-122.600;2023-10-19T04:23:27;12.50;99.90
1361;DHT22;674;45.552;-122.600;2023-10-19T04:25:56;12.50;99.90
1361;DHT22;674;45.552;-122.600;2023-10-19T04:28:28;12.40;99.90
1361;DHT22;674;45.552;-122.600;2023-10-19T04:31:01;12.40;99.90
1361;DHT22;674;45.552;-122.600;2023-10-19T04:33:34;12.40;99.90
1361;DHT22;674;45.552;-122.600;2023-10-19T04:36:04;12.30;99.90
1361;DHT22;674;45.552;-122.600;2023-10-19T04:38:37;12.30;99.90
1361;DHT22;674;45.552;-122.600;2023-10-19T04:41:09;12.20;99.90
1361;DHT22;674;45.552;-122.600;2023-10-19T04:43:39;12.20;99.90
1361;DHT22;674;45.552;-122.600;2023-10-19T04:46:10;12.30;99.90
1361;DHT22;674;45.552;-122.600;2023-10-19T04:48:40;12.20;99.90
1361;DHT22;674;45.552;-122.600;2023-10-19T04:51:11;12.20;99.90
1361;DHT22;674;45.552;-122.600;2023-10-19T04:53:40;12.20;99.90
1361;DHT22;674;45.552;-122.600;2023-10-19T04:56:10;12.20;99.90
1361;DHT22;674;45.552;-122.600;2023-10-19T04:58:40;12.10;99.90
1361;DHT22;674;45.552;-122.600;2023-10-19T05:01:09;12.10;99.90
1361;DHT22;674;45.552;-122.600;2023-10-19T05:03:40;12.00;99.90
1361;DHT22;674;45.552;-122.600;2023-10-19T05:06:09;12.00;99.90
1361;DHT22;674;45.552;-122.600;2023-10-19T05:08:38;12.00;99.90
1361;DHT22;674;45.552;-122.600;2023-10-19T05:11:06;11.90;99.90
1361;DHT22;674;45.552;-122.600;2023-10-19T05:13:35;11.90;99.90
1361;DHT22;674;45.552;-122.600;2023-10-19T05:16:05;11.80;99.90
1361;DHT22;674;45.552;-122.600;2023-10-19T05:18:33;11.80;99.90
1361;DHT22;674;45.552;-122.600;2023-10-19T05:21:02;11.80;99.90
1361;DHT22;674;45.552;-122.600;2023-10-19T05:23:31;11.80;99.90
1361;DHT22;674;45.552;-122.600;2023-10-19T05:26:02;11.70;99.90
1361;DHT22;674;45.552;-122.600;2023-10-19T05:28:32;11.70;99.90
1361;DHT22;674;45.552;-122.600;2023-10-19T05:31:01;11.70;99.90
1361;DHT22;674;45.552;-122.600;2023-10-19T05:33:30;11.60;99.90
1361;DHT22;674;45.552;-122.600;2023-10-19T05:35:58;11.60;99.90
1361;DHT22;674;45.552;-122.600;2023-10-19T05:38:29;11.60;99.90
1361;DHT22;674;45.552;-122.600;2023-10-19T05:41:00;11.50;99.90
1361;DHT22;674;45.552;-122.600;2023-10-19T05:43:28;11.50;99.90
1361;DHT22;674;45.552;-122.600;2023-10-19T05:45:58;11.60;99.90
1361;DHT22;674;45.552;-122.600;2023-10-19T05:48:28;11.60;99.90
1361;DHT22;674;45.552;-122.600;2023-10-19T05:50:57;11.50;99.90
1361;DHT22;674;45.552;-122.600;2023-10-19T05:53:26;11.50;99.90
1361;DHT22;674;45.552;-122.600;2023-10-19T05:55:54;11.50;99.90
1361;DHT22;674;45.552;-122.600;2023-10-19T05:58:23;11.50;99.90
1361;DHT22;674;45.552;-122.600;2023-10-19T06:00:53;11.40;99.90
1361;DHT22;674;45.552;-122.600;2023-10-19T06:03:21;11.40;99.90
1361;DHT22;674;45.552;-122.600;2023-10-19T06:05:50;11.40;99.90
1361;DHT22;674;45.552;-122.600;2023-10-19T06:08:18;11.40;99.90
1361;DHT22;674;45.552;-122.600;2023-10-19T06:10:51;11.40;99.90
1361;DHT22;674;45.552;-122.600;2023-10-19T06:13:21;11.40;99.90
1361;DHT22;674;45.552;-122.600;2023-10-19T06:15:50;11.30;99.90
1361;DHT22;674;45.552;-122.600;2023-10-19T06:18:19;11.30;99.90
1361;DHT22;674;45.552;-122.600;2023-10-19T06:20:48;11.30;99.90
1361;DHT22;674;45.552;-122.600;2023-10-19T06:23:19;11.30;99.90
1361;DHT22;674;45.552;-122.600;2023-10-19T06:25:48;11.30;99.90
1361;DHT22;674;45.552;-122.600;2023-10-19T06:28:18;11.30;99.90
1361;DHT22;674;45.552;-122.600;2023-10-19T06:30:47;11.30;99.90
1361;DHT22;674;45.552;-122.600;2023-10-19T06:33:16;11.30;99.90
1361;DHT22;674;45.552;-122.600;2023-10-19T06:35:45;11.30;99.90
1361;DHT22;674;45.552;-122.600;2023-10-19T06:38:14;11.30;99.90
1361;DHT22;674;45.552;-122.600;2023-10-19T06:40:45;11.30;99.90
1361;DHT22;674;45.552;-122.600;2023-10-19T06:43:15;11.30;99.90
1361;DHT22;674;45.552;-122.600;2023-10-19T06:45:45;11.20;99.90
1361;DHT22;674;45.552;-122.600;2023-10-19T06:48:13;11.20;99.90
1361;DHT22;674;45.552;-122.600;2023-10-19T06:50:43;11.20;99.90
1361;DHT22;674;45.552;-122.600;2023-10-19T06:53:18;11.20;99.90
1361;DHT22;674;45.552;-122.600;2023-10-19T06:55:47;11.20;99.90
1361;DHT22;674;45.552;-122.600;2023-10-19T06:58:16;11.10;99.90
1361;DHT22;674;45.552;-122.600;2023-10-19T07:00:47;11.10;99.90
1361;DHT22;674;45.552;-122.600;2023-10-19T07:03:24;11.10;99.90
1361;DHT22;674;45.552;-122.600;2023-10-19T07:05:54;11.10;99.90
1361;DHT22;674;45.552;-122.600;2023-10-19T07:08:23;11.10;99.90
1361;DHT22;674;45.552;-122.600;2023-10-19T07:10:51;11.00;99.90
1361;DHT22;674;45.552;-122.600;2023-10-19T07:13:20;11.00;99.90
1361;DHT22;674;45.552;-122.600;2023-10-19T07:15:49;11.00;99.90
1361;DHT22;674;45.552;-122.600;2023-10-19T07:18:19;11.10;99.90
1361;DHT22;674;45.552;-122.600;2023-10-19T07:20:48;11.00;99.90
1361;DHT22;674;45.552;-122.600;2023-10-19T07:23:17;11.00;99.90
1361;DHT22;674;45.552;-122.600;2023-10-19T07:25:48;11.00;99.90
1361;DHT22;674;45.552;-122.600;2023-10-19T07:28:21;11.00;99.90
1361;DHT22;674;45.552;-122.600;2023-10-19T07:30:51;11.00;99.90
1361;DHT22;674;45.552;-122.600;2023-10-19T07:33:20;11.00;99.90
1361;DHT22;674;45.552;-122.600;2023-10-19T07:35:50;11.10;99.90
1361;DHT22;674;45.552;-122.600;2023-10-19T07:38:27;11.00;99.90
1361;DHT22;674;45.552;-122.600;2023-10-19T07:41:01;11.00;99.90
1361;DHT22;674;45.552;-122.600;2023-10-19T07:43:30;10.90;99.90
1361;DHT22;674;45.552;-122.600;2023-10-19T07:45:59;10.90;99.90
1361;DHT22;674;45.552;-122.600;2023-10-19T07:48:27;10.90;99.90
1361;DHT22;674;45.552;-122.600;2023-10-19T07:50:57;10.70;99.90
1361;DHT22;674;45.552;-122.600;2023-10-19T07:53:25;10.90;99.90
1361;DHT22;674;45.552;-122.600;2023-10-19T07:55:54;10.90;99.90
1361;DHT22;674;45.552;-122.600;2023-10-19T07:58:25;10.90;99.90
1361;DHT22;674;45.552;-122.600;2023-10-19T08:00:55;10.90;99.90
1361;DHT22;674;45.552;-122.600;2023-10-19T08:03:24;10.90;99.90
1361;DHT22;674;45.552;-122.600;2023-10-19T08:05:53;10.80;99.90
1361;DHT22;674;45.552;-122.600;2023-10-19T08:08:22;11.10;99.90
1361;DHT22;674;45.552;-122.600;2023-10-19T08:10:52;10.80;99.90
1361;DHT22;674;45.552;-122.600;2023-10-19T08:13:21;10.70;99.90
1361;DHT22;674;45.552;-122.600;2023-10-19T08:15:55;10.70;99.90
1361;DHT22;674;45.552;-122.600;2023-10-19T08:18:23;10.70;99.90
1361;DHT22;674;45.552;-122.600;2023-10-19T08:20:52;10.60;99.90
1361;DHT22;674;45.552;-122.600;2023-10-19T08:23:21;10.60;99.90
1361;DHT22;674;45.552;-122.600;2023-10-19T08:25:55;10.60;99.90
1361;DHT22;674;45.552;-122.600;2023-10-19T08:28:24;10.50;99.90
1361;DHT22;674;45.552;-122.600;2023-10-19T08:30:53;10.50;99.90
1361;DHT22;674;45.552;-122.600;2023-10-19T08:33:26;10.50;99.90
1361;DHT22;674;45.552;-122.600;2023-10-19T08:35:58;10.50;99.90
1361;DHT22;674;45.552;-122.600;2023-10-19T08:38:28;10.50;99.90
1361;DHT22;674;45.552;-122.600;2023-10-19T08:40:57;10.50;99.90
1361;DHT22;674;45.552;-122.600;2023-10-19T08:43:26;10.50;99.90
1361;DHT22;674;45.552;-122.600;2023-10-19T08:45:56;10.50;99.90
1361;DHT22;674;45.552;-122.600;2023-10-19T08:48:25;10.50;99.90
1361;DHT22;674;45.552;-122.600;2023-10-19T08:50:54;10.50;99.90
1361;DHT22;674;45.552;-122.600;2023-10-19T08:53:24;10.40;99.90
1361;DHT22;674;45.552;-122.600;2023-10-19T08:55:54;10.40;99.90
1361;DHT22;674;45.552;-122.600;2023-10-19T08:58:23;10.40;99.90
1361;DHT22;674;45.552;-122.600;2023-10-19T09:00:52;10.30;99.90
1361;DHT22;674;45.552;-122.600;2023-10-19T09:03:25;10.30;99.90
1361;DHT22;674;45.552;-122.600;2023-10-19T09:05:54;10.30;99.90
1361;DHT22;674;45.552;-122.600;2023-10-19T09:08:24;10.30;99.90
1361;DHT22;674;45.552;-122.600;2023-10-19T09:10:53;10.30;99.90
1361;DHT22;674;45.552;-122.600;2023-10-19T09:13:22;10.30;99.90
1361;DHT22;674;45.552;-122.600;2023-10-19T09:15:52;10.30;99.90
1361;DHT22;674;45.552;-122.600;2023-10-19T09:18:23;10.30;99.90
1361;DHT22;674;45.552;-122.600;2023-10-19T09:20:53;10.30;99.90
1361;DHT22;674;45.552;-122.600;2023-10-19T09:23:23;10.30;99.90
1361;DHT22;674;45.552;-122.600;2023-10-19T09:25:52;10.20;99.90
1361;DHT22;674;45.552;-122.600;2023-10-19T09:28:24;10.20;99.90
1361;DHT22;674;45.552;-122.600;2023-10-19T09:30:53;10.20;99.90
1361;DHT22;674;45.552;-122.600;2023-10-19T09:33:25;10.20;99.90
1361;DHT22;674;45.552;-122.600;2023-10-19T09:35:55;10.20;99.90
1361;DHT22;674;45.552;-122.600;2023-10-19T09:38:28;10.20;99.90
1361;DHT22;674;45.552;-122.600;2023-10-19T09:40:57;10.10;99.90
1361;DHT22;674;45.552;-122.600;2023-10-19T09:43:34;10.10;99.90
1361;DHT22;674;45.552;-122.600;2023-10-19T09:46:08;10.20;99.90
1361;DHT22;674;45.552;-122.600;2023-10-19T09:48:49;10.20;99.90
1361;DHT22;674;45.552;-122.600;2023-10-19T09:51:20;10.20;99.90
1361;DHT22;674;45.552;-122.600;2023-10-19T09:54:02;10.20;99.90
1361;DHT22;674;45.552;-122.600;2023-10-19T09:56:36;10.20;99.90
1361;DHT22;674;45.552;-122.600;2023-10-19T09:59:17;10.30;99.90
1361;DHT22;674;45.552;-122.600;2023-10-19T10:02:09;10.20;99.90
1361;DHT22;674;45.552;-122.600;2023-10-19T10:04:43;10.20;99.90
1361;DHT22;674;45.552;-122.600;2023-10-19T10:07:17;10.20;99.90
1361;DHT22;674;45.552;-122.600;2023-10-19T10:10:06;10.20;99.90
1361;DHT22;674;45.552;-122.600;2023-10-19T10:12:39;10.10;99.90
1361;DHT22;674;45.552;-122.600;2023-10-19T10:15:08;10.10;99.90
1361;DHT22;674;45.552;-122.600;2023-10-19T10:17:38;10.10;99.90
1361;DHT22;674;45.552;-122.600;2023-10-19T10:22:42;10.00;99.90
1361;DHT22;674;45.552;-122.600;2023-10-19T10:25:27;9.90;99.90
1361;DHT22;674;45.552;-122.600;2023-10-19T10:27:56;9.90;99.90
1361;DHT22;674;45.552;-122.600;2023-10-19T10:30:25;9.80;99.90
1361;DHT22;674;45.552;-122.600;2023-10-19T10:32:54;9.80;99.90
1361;DHT22;674;45.552;-122.600;2023-10-19T10:38:09;9.80;99.90
1361;DHT22;674;45.552;-122.600;2023-10-19T10:40:48;9.80;99.90
1361;DHT22;674;45.552;-122.600;2023-10-19T10:43:19;9.80;99.90
1361;DHT22;674;45.552;-122.600;2023-10-19T10:45:49;9.80;99.90
1361;DHT22;674;45.552;-122.600;2023-10-19T10:48:19;9.70;99.90
1361;DHT22;674;45.552;-122.600;2023-10-19T10:50:47;9.80;99.90
1361;DHT22;674;45.552;-122.600;2023-10-19T10:53:17;9.70;99.90
1361;DHT22;674;45.552;-122.600;2023-10-19T10:55:46;9.70;99.90
1361;DHT22;674;45.552;-122.600;2023-10-19T10:58:16;9.70;99.90
1361;DHT22;674;45.552;-122.600;2023-10-19T11:00:46;9.70;99.90
1361;DHT22;674;45.552;-122.600;2023-10-19T11:03:16;9.70;99.90
1361;DHT22;674;45.552;-122.600;2023-10-19T11:05:45;9.70;99.90
1361;DHT22;674;45.552;-122.600;2023-10-19T11:08:17;9.70;99.90
1361;DHT22;674;45.552;-122.600;2023-10-19T11:10:49;9.70;99.90
1361;DHT22;674;45.552;-122.600;2023-10-19T11:13:23;9.60;99.90
1361;DHT22;674;45.552;-122.600;2023-10-19T11:15:54;9.60;99.90
1361;DHT22;674;45.552;-122.600;2023-10-19T11:20:59;9.50;99.90
1361;DHT22;674;45.552;-122.600;2023-10-19T11:23:54;9.50;99.90
1361;DHT22;674;45.552;-122.600;2023-10-19T11:26:25;9.50;99.90
1361;DHT22;674;45.552;-122.600;2023-10-19T11:29:03;9.40;99.90
1361;DHT22;674;45.552;-122.600;2023-10-19T11:31:38;9.40;99.90
1361;DHT22;674;45.552;-122.600;2023-10-19T11:34:07;9.40;99.90
1361;DHT22;674;45.552;-122.600;2023-10-19T11:36:37;9.30;99.90
1361;DHT22;674;45.552;-122.600;2023-10-19T11:39:06;9.40;99.90
1361;DHT22;674;45.552;-122.600;2023-10-19T11:41:39;9.20;99.90
1361;DHT22;674;45.552;-122.600;2023-10-19T11:44:08;9.10;99.90
1361;DHT22;674;45.552;-122.600;2023-10-19T11:46:37;9.20;99.90
1361;DHT22;674;45.552;-122.600;2023-10-19T11:49:06;9.10;99.90
1361;DHT22;674;45.552;-122.600;2023-10-19T11:51:35;9.10;99.90
1361;DHT22;674;45.552;-122.600;2023-10-19T11:54:05;9.10;99.90
1361;DHT22;674;45.552;-122.600;2023-10-19T11:56:34;9.00;99.90
1361;DHT22;674;45.552;-122.600;2023-10-19T11:59:03;9.00;99.90
1361;DHT22;674;45.552;-122.600;2023-10-19T12:01:31;9.00;99.90
1361;DHT22;674;45.552;-122.600;2023-10-19T12:04:00;9.00;99.90
1361;DHT22;674;45.552;-122.600;2023-10-19T12:06:29;8.90;99.90
1361;DHT22;674;45.552;-122.600;2023-10-19T12:08:57;9.00;99.90
1361;DHT22;674;45.552;-122.600;2023-10-19T12:11:27;9.00;99.90
1361;DHT22;674;45.552;-122.600;2023-10-19T12:13:56;9.00;99.90
1361;DHT22;674;45.552;-122.600;2023-10-19T12:16:27;9.10;99.90
1361;DHT22;674;45.552;-122.600;2023-10-19T12:18:56;9.10;99.90
1361;DHT22;674;45.552;-122.600;2023-10-19T12:21:26;9.10;99.90
1361;DHT22;674;45.552;-122.600;2023-10-19T12:23:56;9.00;99.90
1361;DHT22;674;45.552;-122.600;2023-10-19T12:26:27;9.30;99.90
1361;DHT22;674;45.552;-122.600;2023-10-19T12:28:58;9.30;99.90
1361;DHT22;674;45.552;-122.600;2023-10-19T12:31:27;9.40;99.90
1361;DHT22;674;45.552;-122.600;2023-10-19T12:33:58;9.40;99.90
1361;DHT22;674;45.552;-122.600;2023-10-19T12:36:27;9.50;99.90
1361;DHT22;674;45.552;-122.600;2023-10-19T12:38:55;9.50;99.90
1361;DHT22;674;45.552;-122.600;2023-10-19T12:41:25;9.60;99.90
1361;DHT22;674;45.552;-122.600;2023-10-19T12:43:55;9.70;99.90
1361;DHT22;674;45.552;-122.600;2023-10-19T12:46:30;9.80;99.90
1361;DHT22;674;45.552;-122.600;2023-10-19T12:48:59;9.90;99.90
1361;DHT22;674;45.552;-122.600;2023-10-19T12:51:27;10.00;99.90
1361;DHT22;674;45.552;-122.600;2023-10-19T12:53:56;10.10;99.90
1361;DHT22;674;45.552;-122.600;2023-10-19T12:56:25;10.10;99.90
1361;DHT22;674;45.552;-122.600;2023-10-19T12:58:56;10.20;99.90
1361;DHT22;674;45.552;-122.600;2023-10-19T13:01:25;10.30;99.90
1361;DHT22;674;45.552;-122.600;2023-10-19T13:03:56;10.40;99.90
1361;DHT22;674;45.552;-122.600;2023-10-19T13:06:26;10.40;99.90
1361;DHT22;674;45.552;-122.600;2023-10-19T13:08:57;10.50;99.90
1361;DHT22;674;45.552;-122.600;2023-10-19T13:11:26;10.60;99.90
1361;DHT22;674;45.552;-122.600;2023-10-19T13:13:55;10.60;99.90
1361;DHT22;674;45.552;-122.600;2023-10-19T13:16:24;10.70;99.90
1361;DHT22;674;45.552;-122.600;2023-10-19T13:18:53;10.70;99.90
1361;DHT22;674;45.552;-122.600;2023-10-19T13:21:22;10.80;99.90
1361;DHT22;674;45.552;-122.600;2023-10-19T13:23:55;10.90;99.90
1361;DHT22;674;45.552;-122.600;2023-10-19T13:26:24;10.90;99.90
1361;DHT22;674;45.552;-122.600;2023-10-19T13:28:54;11.00;99.90
1361;DHT22;674;45.552;-122.600;2023-10-19T13:31:25;11.00;99.90
1361;DHT22;674;45.552;-122.600;2023-10-19T13:33:55;11.10;99.90
1361;DHT22;674;45.552;-122.600;2023-10-19T13:36:25;11.10;99.90
1361;DHT22;674;45.552;-122.600;2023-10-19T13:38:53;11.10;99.90
1361;DHT22;674;45.552;-122.600;2023-10-19T13:41:22;11.10;99.90
1361;DHT22;674;45.552;-122.600;2023-10-19T13:43:51;11.20;99.90
1361;DHT22;674;45.552;-122.600;2023-10-19T13:46:20;11.20;99.90
1361;DHT22;674;45.552;-122.600;2023-10-19T13:48:51;11.20;99.90
1361;DHT22;674;45.552;-122.600;2023-10-19T13:51:20;11.30;99.90
1361;DHT22;674;45.552;-122.600;2023-10-19T13:53:49;11.30;99.90
1361;DHT22;674;45.552;-122.600;2023-10-19T13:56:18;11.30;99.90
1361;DHT22;674;45.552;-122.600;2023-10-19T13:58:46;11.40;99.90
1361;DHT22;674;45.552;-122.600;2023-10-19T14:01:16;11.40;99.90
1361;DHT22;674;45.552;-122.600;2023-10-19T14:03:45;11.50;99.90
1361;DHT22;674;45.552;-122.600;2023-10-19T14:06:15;11.50;99.90
1361;DHT22;674;45.552;-122.600;2023-10-19T14:08:44;11.50;99.90
1361;DHT22;674;45.552;-122.600;2023-10-19T14:11:13;11.50;99.90
1361;DHT22;674;45.552;-122.600;2023-10-19T14:13:42;11.50;99.90
1361;DHT22;674;45.552;-122.600;2023-10-19T14:16:33;11.50;99.90
1361;DHT22;674;45.552;-122.600;2023-10-19T14:19:19;11.50;99.90
1361;DHT22;674;45.552;-122.600;2023-10-19T14:21:47;11.60;99.90
1361;DHT22;674;45.552;-122.600;2023-10-19T14:24:16;11.50;99.90
1361;DHT22;674;45.552;-122.600;2023-10-19T14:26:46;11.50;99.90
1361;DHT22;674;45.552;-122.600;2023-10-19T14:29:15;11.60;99.90
1361;DHT22;674;45.552;-122.600;2023-10-19T14:31:45;11.60;99.90
1361;DHT22;674;45.552;-122.600;2023-10-19T14:34:13;11.60;99.90
1361;DHT22;674;45.552;-122.600;2023-10-19T14:36:42;11.60;99.90
1361;DHT22;674;45.552;-122.600;2023-10-19T14:39:10;11.60;99.90
1361;DHT22;674;45.552;-122.600;2023-10-19T14:41:42;11.60;99.90
1361;DHT22;674;45.552;-122.600;2023-10-19T14:44:11;11.60;99.90
1361;DHT22;674;45.552;-122.600;2023-10-19T14:46:39;11.60;99.90
1361;DHT22;674;45.552;-122.600;2023-10-19T14:49:08;11.70;99.90
1361;DHT22;674;45.552;-122.600;2023-10-19T14:51:36;11.70;99.90
1361;DHT22;674;45.552;-122.600;2023-10-19T14:54:05;11.70;99.90
1361;DHT22;674;45.552;-122.600;2023-10-19T14:56:34;11.80;99.90
1361;DHT22;674;45.552;-122.600;2023-10-19T14:59:03;11.80;99.90
1361;DHT22;674;45.552;-122.600;2023-10-19T15:01:33;11.80;99.90
1361;DHT22;674;45.552;-122.600;2023-10-19T15:04:02;11.70;99.90
1361;DHT22;674;45.552;-122.600;2023-10-19T15:06:31;11.70;99.90
1361;DHT22;674;45.552;-122.600;2023-10-19T15:09:04;11.70;99.90
1361;DHT22;674;45.552;-122.600;2023-10-19T15:11:33;11.70;99.90
1361;DHT22;674;45.552;-122.600;2023-10-19T15:14:01;11.70;99.90
1361;DHT22;674;45.552;-122.600;2023-10-19T15:16:31;11.70;99.90
1361;DHT22;674;45.552;-122.600;2023-10-19T15:18:59;11.70;99.90
1361;DHT22;674;45.552;-122.600;2023-10-19T15:21:28;11.70;99.90
1361;DHT22;674;45.552;-122.600;2023-10-19T15:23:57;11.80;99.90
1361;DHT22;674;45.552;-122.600;2023-10-19T15:26:26;11.80;99.90
1361;DHT22;674;45.552;-122.600;2023-10-19T15:28:54;11.80;99.90
1361;DHT22;674;45.552;-122.600;2023-10-19T15:31:23;11.80;99.90
1361;DHT22;674;45.552;-122.600;2023-10-19T15:33:52;11.70;99.90
1361;DHT22;674;45.552;-122.600;2023-10-19T15:36:21;11.70;99.90
1361;DHT22;674;45.552;-122.600;2023-10-19T15:38:49;11.80;99.90
1361;DHT22;674;45.552;-122.600;2023-10-19T15:41:18;11.80;99.90
1361;DHT22;674;45.552;-122.600;2023-10-19T15:43:48;11.80;99.90
1361;DHT22;674;45.552;-122.600;2023-10-19T15:46:16;11.70;99.90
1361;DHT22;674;45.552;-122.600;2023-10-19T15:48:47;12.10;99.90
1361;DHT22;674;45.552;-122.600;2023-10-19T15:51:16;11.80;99.90
1361;DHT22;674;45.552;-122.600;2023-10-19T15:53:45;11.90;99.90
1361;DHT22;674;45.552;-122.600;2023-10-19T15:56:14;12.00;99.90
1361;DHT22;674;45.552;-122.600;2023-10-19T15:58:45;12.00;99.90
1361;DHT22;674;45.552;-122.600;2023-10-19T16:01:14;12.10;99.90
1361;DHT22;674;45.552;-122.600;2023-10-19T16:03:44;12.10;99.90
1361;DHT22;674;45.552;-122.600;2023-10-19T16:06:13;12.10;99.90
1361;DHT22;674;45.552;-122.600;2023-10-19T16:08:43;12.10;99.90